createdAt,value
2018-11-27T00:00:19.431Z,7.90
2018-11-27T00:01:19.419Z,9.20
2018-11-27T00:02:19.408Z,8.00
2018-11-27T00:03:19.398Z,7.10
2018-11-27T00:04:19.388Z,8.80
2018-11-27T00:05:19.390Z,8.90
2018-11-27T00:06:19.365Z,10.70
2018-11-27T00:07:19.355Z,7.80
2018-11-27T00:08:19.345Z,7.40
2018-11-27T00:09:19.334Z,7.40
2018-11-27T00:10:19.323Z,7.30
2018-11-27T00:11:19.312Z,8.70
2018-11-27T00:12:19.302Z,8.30
2018-11-27T00:13:19.289Z,9.00
2018-11-27T00:14:19.280Z,9.80
2018-11-27T00:15:19.273Z,9.30
2018-11-27T00:16:19.259Z,8.50
2018-11-27T00:17:19.248Z,8.00
2018-11-27T00:18:19.240Z,7.00
2018-11-27T00:19:19.227Z,8.90
2018-11-27T00:20:19.218Z,7.90
2018-11-27T00:21:19.205Z,7.30
2018-11-27T00:22:19.200Z,7.40
2018-11-27T00:23:19.183Z,7.90
2018-11-27T00:24:19.173Z,8.50
2018-11-27T00:25:19.163Z,9.30
2018-11-27T00:26:19.152Z,8.50
2018-11-27T00:27:19.142Z,6.80
2018-11-27T00:28:19.138Z,8.50
2018-11-27T00:29:19.118Z,7.40
2018-11-27T00:30:19.108Z,7.10
2018-11-27T00:31:19.098Z,6.10
2018-11-27T00:32:19.086Z,7.90
2018-11-27T00:33:19.075Z,7.90
2018-11-27T00:34:19.074Z,8.10
2018-11-27T00:35:19.054Z,6.60
2018-11-27T00:36:19.043Z,7.90
2018-11-27T00:37:19.034Z,7.70
2018-11-27T00:38:19.023Z,7.20
2018-11-27T00:39:19.016Z,7.80
2018-11-27T00:40:19.023Z,8.50
2018-11-27T00:41:18.989Z,8.20
2018-11-27T00:42:18.978Z,7.20
2018-11-27T00:43:18.967Z,7.50
2018-11-27T00:44:18.958Z,6.70
2018-11-27T00:45:18.948Z,7.70
2018-11-27T00:46:18.938Z,8.00
2018-11-27T00:47:18.926Z,6.40
2018-11-27T00:48:18.914Z,7.50
2018-11-27T00:49:18.903Z,7.00
2018-11-27T00:50:18.892Z,7.10
2018-11-27T00:51:18.886Z,7.70
2018-11-27T00:52:18.873Z,7.20
2018-11-27T00:53:18.861Z,6.60
2018-11-27T00:54:20.002Z,6.70
2018-11-27T00:55:18.845Z,6.30
2018-11-27T00:56:18.829Z,8.30
2018-11-27T00:57:18.819Z,6.80
2018-11-27T00:58:18.812Z,6.70
2018-11-27T00:59:18.797Z,7.50
2018-11-27T01:00:18.789Z,6.70
2018-11-27T01:01:18.775Z,7.10
2018-11-27T01:02:18.765Z,8.10
2018-11-27T01:03:18.755Z,6.50
2018-11-27T01:04:18.747Z,7.10
2018-11-27T01:05:18.733Z,6.00
2018-11-27T01:06:18.721Z,6.80
2018-11-27T01:07:18.713Z,6.10
2018-11-27T01:08:18.700Z,6.90
2018-11-27T01:09:18.692Z,6.10
2018-11-27T01:10:18.680Z,6.30
2018-11-27T01:11:18.669Z,7.50
2018-11-27T01:12:18.660Z,7.10
2018-11-27T01:13:18.648Z,6.90
2018-11-27T01:14:18.636Z,6.30
2018-11-27T01:15:18.630Z,7.10
2018-11-27T01:16:18.613Z,7.60
2018-11-27T01:17:18.603Z,7.70
2018-11-27T01:18:18.592Z,7.70
2018-11-27T01:19:18.580Z,6.40
2018-11-27T01:20:18.570Z,7.00
2018-11-27T01:21:18.568Z,6.30
2018-11-27T01:22:18.589Z,6.10
2018-11-27T01:23:18.539Z,6.10
2018-11-27T01:24:18.528Z,6.70
2018-11-27T01:25:18.518Z,6.50
2018-11-27T01:26:18.506Z,6.10
2018-11-27T01:27:18.496Z,6.60
2018-11-27T01:28:18.486Z,5.90
2018-11-27T01:29:18.478Z,6.50
2018-11-27T01:30:18.463Z,8.00
2018-11-27T01:31:18.452Z,6.50
2018-11-27T01:32:18.444Z,7.10
2018-11-27T01:33:18.431Z,6.10
2018-11-27T01:34:18.421Z,5.40
2018-11-27T01:35:18.410Z,6.10
2018-11-27T01:36:18.401Z,5.60
2018-11-27T01:37:18.388Z,6.20
2018-11-27T01:38:18.378Z,7.70
2018-11-27T01:39:18.368Z,6.30
2018-11-27T01:40:18.356Z,5.50
2018-11-27T01:41:18.345Z,7.00
2018-11-27T01:42:18.336Z,5.30
2018-11-27T01:43:18.329Z,6.10
2018-11-27T01:44:18.313Z,6.30
2018-11-27T01:45:18.306Z,6.40
2018-11-27T01:46:18.292Z,5.80
2018-11-27T01:47:18.281Z,5.60
2018-11-27T01:48:18.270Z,5.60
2018-11-27T01:49:18.260Z,6.40
2018-11-27T01:50:18.250Z,6.10
2018-11-27T01:51:18.237Z,6.00
2018-11-27T01:52:18.230Z,5.70
2018-11-27T01:53:18.219Z,7.80
2018-11-27T01:54:18.219Z,7.00
2018-11-27T01:55:18.196Z,5.40
2018-11-27T01:56:18.194Z,7.20
2018-11-27T01:57:18.174Z,5.20
2018-11-27T01:58:18.168Z,4.90
2018-11-27T01:59:18.154Z,5.70
2018-11-27T02:00:18.142Z,6.80
2018-11-27T02:01:18.131Z,5.30
2018-11-27T02:02:18.129Z,5.30
2018-11-27T02:03:18.110Z,6.00
2018-11-27T02:04:18.101Z,5.60
2018-11-27T02:05:18.088Z,6.50
2018-11-27T02:06:18.079Z,6.20
2018-11-27T02:07:18.068Z,6.10
2018-11-27T02:08:18.055Z,6.30
2018-11-27T02:09:18.045Z,5.70
2018-11-27T02:10:18.034Z,7.60
2018-11-27T02:11:18.023Z,6.10
2018-11-27T02:12:18.013Z,5.70
2018-11-27T02:13:18.007Z,6.20
2018-11-27T02:14:17.992Z,5.10
2018-11-27T02:15:17.984Z,5.40
2018-11-27T02:16:17.972Z,7.20
2018-11-27T02:17:17.961Z,5.50
2018-11-27T02:18:17.949Z,6.00
2018-11-27T02:19:17.937Z,5.80
2018-11-27T02:20:17.926Z,6.10
2018-11-27T02:21:17.919Z,6.30
2018-11-27T02:22:17.906Z,5.80
2018-11-27T02:23:17.895Z,6.20
2018-11-27T02:24:17.884Z,5.30
2018-11-27T02:25:17.874Z,5.90
2018-11-27T02:26:17.868Z,5.80
2018-11-27T02:27:17.851Z,5.90
2018-11-27T02:28:17.842Z,6.00
2018-11-27T02:29:17.830Z,4.90
2018-11-27T02:30:17.822Z,5.90
2018-11-27T02:31:17.809Z,5.20
2018-11-27T02:32:17.822Z,6.10
2018-11-27T02:33:17.789Z,5.40
2018-11-27T02:34:17.776Z,6.60
2018-11-27T02:35:17.767Z,5.50
2018-11-27T02:36:17.755Z,5.20
2018-11-27T02:37:17.750Z,5.60
2018-11-27T02:38:17.746Z,6.20
2018-11-27T02:39:17.724Z,6.40
2018-11-27T02:40:17.713Z,5.10
2018-11-27T02:41:17.702Z,5.70
2018-11-27T02:42:17.692Z,5.80
2018-11-27T02:43:17.686Z,6.20
2018-11-27T02:44:17.670Z,6.00
2018-11-27T02:45:17.674Z,5.50
2018-11-27T02:46:17.648Z,6.00
2018-11-27T02:47:17.638Z,4.80
2018-11-27T02:48:17.628Z,6.10
2018-11-27T02:49:17.625Z,6.20
2018-11-27T02:50:17.607Z,4.80
2018-11-27T02:51:17.595Z,5.20
2018-11-27T02:52:17.584Z,6.00
2018-11-27T02:53:17.574Z,4.80
2018-11-27T02:54:17.563Z,5.90
2018-11-27T02:55:17.565Z,4.00
2018-11-27T02:56:17.542Z,5.40
2018-11-27T02:57:17.530Z,5.00
2018-11-27T02:58:17.523Z,6.10
2018-11-27T02:59:17.508Z,6.00
2018-11-27T03:00:17.503Z,5.70
2018-11-27T03:01:17.532Z,5.50
2018-11-27T03:02:17.518Z,5.70
2018-11-27T03:03:17.466Z,5.40
2018-11-27T03:04:17.462Z,4.60
2018-11-27T03:05:17.446Z,5.80
2018-11-27T03:06:17.435Z,5.30
2018-11-27T03:07:17.422Z,4.90
2018-11-27T03:08:17.412Z,5.70
2018-11-27T03:09:17.403Z,5.30
2018-11-27T03:10:17.392Z,4.80
2018-11-27T03:11:17.380Z,5.00
2018-11-27T03:12:17.371Z,5.50
2018-11-27T03:13:17.365Z,5.20
2018-11-27T03:14:17.349Z,5.00
2018-11-27T03:15:17.340Z,5.40
2018-11-27T03:16:17.326Z,4.90
2018-11-27T03:17:17.318Z,5.50
2018-11-27T03:18:17.305Z,5.60
2018-11-27T03:19:17.295Z,4.90
2018-11-27T03:20:17.283Z,4.90
2018-11-27T03:21:17.274Z,4.60
2018-11-27T03:22:17.264Z,4.60
2018-11-27T03:23:17.252Z,5.50
2018-11-27T03:24:17.244Z,5.00
2018-11-27T03:25:17.233Z,6.30
2018-11-27T03:26:17.220Z,5.50
2018-11-27T03:27:17.213Z,5.50
2018-11-27T03:28:17.203Z,4.60
2018-11-27T03:29:17.188Z,5.30
2018-11-27T03:30:17.182Z,5.00
2018-11-27T03:31:17.170Z,4.90
2018-11-27T03:32:17.163Z,4.90
2018-11-27T03:33:17.155Z,5.80
2018-11-27T03:34:17.133Z,5.40
2018-11-27T03:35:17.126Z,4.40
2018-11-27T03:36:17.120Z,6.20
2018-11-27T03:37:17.103Z,4.60
2018-11-27T03:38:17.090Z,5.00
2018-11-27T03:39:17.081Z,4.70
2018-11-27T03:40:17.085Z,5.10
2018-11-27T03:41:17.065Z,5.10
2018-11-27T03:42:17.051Z,4.70
2018-11-27T03:43:17.039Z,4.80
2018-11-27T03:44:17.026Z,5.30
2018-11-27T03:45:17.015Z,4.80
2018-11-27T03:46:17.017Z,4.80
2018-11-27T03:47:16.998Z,5.10
2018-11-27T03:48:16.984Z,4.50
2018-11-27T03:49:16.972Z,4.70
2018-11-27T03:50:16.965Z,5.30
2018-11-27T03:51:16.951Z,4.40
2018-11-27T03:52:16.939Z,4.70
2018-11-27T03:53:16.932Z,4.80
2018-11-27T03:54:16.919Z,4.90
2018-11-27T03:55:16.910Z,4.30
2018-11-27T03:56:16.901Z,5.40
2018-11-27T03:57:16.887Z,5.30
2018-11-27T03:58:16.878Z,5.30
2018-11-27T03:59:16.864Z,5.10
2018-11-27T04:00:16.860Z,4.20
2018-11-27T04:01:16.844Z,4.00
2018-11-27T04:02:16.832Z,4.60
2018-11-27T04:03:16.827Z,5.20
2018-11-27T04:04:16.811Z,4.80
2018-11-27T04:05:16.802Z,4.50
2018-11-27T04:06:16.791Z,5.30
2018-11-27T04:07:16.780Z,4.80
2018-11-27T04:08:16.772Z,4.20
2018-11-27T04:09:16.759Z,5.50
2018-11-27T04:10:16.747Z,5.90
2018-11-27T04:11:16.741Z,5.50
2018-11-27T04:12:16.726Z,5.00
2018-11-27T04:13:16.716Z,4.90
2018-11-27T04:14:16.705Z,5.20
2018-11-27T04:15:16.693Z,4.70
2018-11-27T04:16:16.684Z,4.90
2018-11-27T04:17:16.681Z,5.90
2018-11-27T04:18:16.661Z,4.80
2018-11-27T04:19:16.656Z,5.60
2018-11-27T04:20:16.663Z,4.60
2018-11-27T04:21:16.629Z,4.50
2018-11-27T04:22:16.619Z,5.40
2018-11-27T04:23:16.616Z,4.60
2018-11-27T04:24:16.597Z,5.40
2018-11-27T04:25:16.596Z,4.50
2018-11-27T04:26:16.575Z,5.00
2018-11-27T04:27:16.568Z,4.50
2018-11-27T04:28:16.554Z,4.90
2018-11-27T04:29:16.547Z,5.30
2018-11-27T04:30:16.536Z,5.30
2018-11-27T04:31:16.522Z,5.90
2018-11-27T04:32:16.512Z,4.60
2018-11-27T04:33:16.502Z,4.50
2018-11-27T04:34:16.492Z,4.10
2018-11-27T04:35:16.480Z,5.10
2018-11-27T04:36:16.468Z,4.50
2018-11-27T04:37:16.458Z,4.30
2018-11-27T04:38:16.458Z,4.20
2018-11-27T04:39:16.437Z,4.30
2018-11-27T04:40:16.428Z,5.60
2018-11-27T04:41:16.415Z,5.60
2018-11-27T04:42:16.411Z,4.70
2018-11-27T04:43:16.394Z,4.80
2018-11-27T04:44:16.384Z,4.50
2018-11-27T04:45:16.372Z,4.60
2018-11-27T04:46:16.369Z,4.60
2018-11-27T04:47:16.355Z,4.10
2018-11-27T04:48:16.340Z,4.50
2018-11-27T04:49:16.332Z,5.00
2018-11-27T04:50:16.325Z,4.60
2018-11-27T04:51:16.311Z,4.40
2018-11-27T04:52:16.304Z,5.10
2018-11-27T04:53:16.288Z,5.40
2018-11-27T04:54:16.276Z,5.30
2018-11-27T04:55:16.266Z,4.50
2018-11-27T04:56:16.256Z,4.50
2018-11-27T04:57:16.244Z,4.50
2018-11-27T04:58:16.234Z,4.70
2018-11-27T04:59:16.222Z,4.50
2018-11-27T05:00:16.211Z,4.20
2018-11-27T05:01:16.200Z,4.90
2018-11-27T05:02:16.194Z,4.50
2018-11-27T05:03:16.179Z,5.10
2018-11-27T05:04:16.188Z,4.40
2018-11-27T05:05:16.161Z,4.50
2018-11-27T05:06:16.148Z,5.40
2018-11-27T05:07:16.136Z,4.50
2018-11-27T05:08:16.127Z,5.10
2018-11-27T05:09:16.115Z,4.30
2018-11-27T05:10:16.103Z,4.40
2018-11-27T05:11:16.094Z,4.60
2018-11-27T05:12:16.084Z,4.70
2018-11-27T05:13:16.075Z,3.80
2018-11-27T05:14:16.063Z,4.50
2018-11-27T05:15:16.049Z,4.60
2018-11-27T05:16:16.040Z,4.10
2018-11-27T05:17:16.028Z,4.50
2018-11-27T05:18:16.019Z,5.00
2018-11-27T05:19:16.007Z,3.90
2018-11-27T05:20:15.997Z,5.20
2018-11-27T05:21:15.987Z,4.90
2018-11-27T05:22:15.976Z,4.40
2018-11-27T05:23:15.964Z,4.50
2018-11-27T05:24:15.959Z,4.70
2018-11-27T05:25:15.943Z,5.00
2018-11-27T05:26:15.935Z,4.30
2018-11-27T05:27:15.920Z,5.40
2018-11-27T05:28:15.913Z,5.00
2018-11-27T05:29:15.900Z,5.30
2018-11-27T05:30:15.888Z,5.00
2018-11-27T05:31:15.878Z,3.90
2018-11-27T05:32:15.868Z,4.70
2018-11-27T05:33:15.857Z,5.40
2018-11-27T05:34:15.850Z,4.80
2018-11-27T05:35:15.837Z,4.20
2018-11-27T05:36:15.827Z,5.00
2018-11-27T05:37:15.817Z,4.50
2018-11-27T05:38:15.807Z,4.90
2018-11-27T05:39:15.794Z,4.80
2018-11-27T05:40:15.787Z,5.80
2018-11-27T05:41:15.771Z,4.80
2018-11-27T05:42:15.763Z,4.30
2018-11-27T05:43:15.760Z,4.70
2018-11-27T05:44:15.746Z,5.40
2018-11-27T05:45:15.732Z,4.10
2018-11-27T05:46:15.719Z,4.60
2018-11-27T05:47:15.714Z,4.10
2018-11-27T05:48:15.698Z,4.40
2018-11-27T05:49:15.689Z,4.10
2018-11-27T05:50:15.682Z,4.50
2018-11-27T05:51:15.669Z,4.30
2018-11-27T05:52:15.654Z,4.20
2018-11-27T05:53:15.645Z,5.40
2018-11-27T05:54:15.634Z,4.90
2018-11-27T05:55:15.624Z,4.50
2018-11-27T05:56:15.619Z,5.40
2018-11-27T05:57:15.608Z,4.40
2018-11-27T05:58:15.593Z,4.10
2018-11-27T05:59:15.583Z,4.50
2018-11-27T06:00:15.570Z,4.40
2018-11-27T06:01:15.559Z,4.50
2018-11-27T06:02:15.549Z,3.60
2018-11-27T06:03:15.546Z,4.10
2018-11-27T06:04:15.527Z,5.00
2018-11-27T06:05:15.516Z,4.90
2018-11-27T06:06:15.509Z,4.70
2018-11-27T06:07:15.497Z,5.20
2018-11-27T06:08:15.488Z,4.40
2018-11-27T06:09:15.477Z,4.00
2018-11-27T06:10:15.471Z,4.50
2018-11-27T06:11:15.455Z,4.70
2018-11-27T06:12:15.438Z,4.70
2018-11-27T06:13:15.427Z,4.10
2018-11-27T06:14:15.418Z,4.20
2018-11-27T06:15:15.407Z,5.70
2018-11-27T06:16:15.398Z,4.30
2018-11-27T06:17:15.384Z,4.50
2018-11-27T06:18:15.373Z,5.20
2018-11-27T06:19:15.362Z,6.90
2018-11-27T06:20:15.355Z,4.30
2018-11-27T06:21:15.341Z,4.40
2018-11-27T06:22:15.330Z,4.90
2018-11-27T06:23:15.323Z,4.60
2018-11-27T06:24:15.308Z,5.30
2018-11-27T06:25:15.304Z,4.90
2018-11-27T06:26:15.290Z,4.00
2018-11-27T06:27:15.278Z,4.80
2018-11-27T06:28:15.269Z,4.70
2018-11-27T06:29:15.256Z,4.70
2018-11-27T06:30:15.247Z,5.20
2018-11-27T06:31:15.237Z,4.90
2018-11-27T06:32:15.223Z,5.10
2018-11-27T06:33:15.214Z,4.20
2018-11-27T06:34:15.206Z,4.90
2018-11-27T06:35:15.193Z,5.00
2018-11-27T06:36:15.189Z,5.80
2018-11-27T06:37:15.171Z,4.80
2018-11-27T06:38:15.199Z,5.10
2018-11-27T06:39:15.152Z,4.30
2018-11-27T06:40:15.139Z,4.50
2018-11-27T06:41:15.127Z,4.00
2018-11-27T06:42:15.117Z,4.80
2018-11-27T06:43:15.108Z,4.90
2018-11-27T06:44:15.095Z,5.00
2018-11-27T06:45:15.085Z,4.30
2018-11-27T06:46:15.072Z,4.70
2018-11-27T06:47:15.063Z,4.50
2018-11-27T06:48:15.052Z,5.10
2018-11-27T06:49:15.041Z,5.10
2018-11-27T06:50:15.043Z,4.00
2018-11-27T06:51:15.021Z,5.30
2018-11-27T06:52:15.010Z,4.20
2018-11-27T06:53:15.001Z,4.80
2018-11-27T06:54:14.987Z,3.80
2018-11-27T06:55:14.982Z,4.90
2018-11-27T06:56:14.985Z,4.50
2018-11-27T06:57:14.957Z,3.90
2018-11-27T06:58:14.944Z,4.90
2018-11-27T06:59:14.935Z,4.50
2018-11-27T07:00:14.925Z,5.50
2018-11-27T07:01:14.915Z,4.80
2018-11-27T07:02:14.902Z,4.80
2018-11-27T07:03:14.893Z,4.80
2018-11-27T07:04:14.880Z,5.20
2018-11-27T07:05:14.870Z,5.40
2018-11-27T07:06:14.858Z,4.90
2018-11-27T07:07:14.850Z,5.20
2018-11-27T07:08:14.838Z,5.10
2018-11-27T07:09:14.830Z,5.00
2018-11-27T07:10:14.820Z,5.80
2018-11-27T07:11:14.807Z,4.80
2018-11-27T07:12:14.796Z,5.80
2018-11-27T07:13:14.791Z,4.90
2018-11-27T07:14:14.772Z,3.90
2018-11-27T07:15:14.763Z,4.60
2018-11-27T07:16:14.757Z,5.20
2018-11-27T07:17:14.740Z,5.00
2018-11-27T07:18:14.742Z,4.40
2018-11-27T07:19:14.743Z,5.70
2018-11-27T07:20:14.709Z,5.00
2018-11-27T07:21:14.740Z,4.90
2018-11-27T07:22:14.690Z,5.50
2018-11-27T07:23:14.679Z,4.80
2018-11-27T07:24:14.668Z,4.70
2018-11-27T07:25:14.653Z,5.80
2018-11-27T07:26:14.646Z,5.30
2018-11-27T07:27:14.635Z,4.70
2018-11-27T07:28:14.622Z,4.60
2018-11-27T07:29:14.623Z,4.40
2018-11-27T07:30:14.600Z,5.40
2018-11-27T07:31:14.590Z,5.10
2018-11-27T07:32:14.579Z,5.20
2018-11-27T07:33:14.572Z,5.60
2018-11-27T07:34:14.558Z,5.60
2018-11-27T07:35:14.547Z,5.60
2018-11-27T07:36:14.538Z,4.90
2018-11-27T07:37:14.526Z,4.70
2018-11-27T07:38:14.515Z,4.80
2018-11-27T07:39:14.509Z,5.40
2018-11-27T07:40:14.494Z,5.90
2018-11-27T07:41:14.483Z,5.20
2018-11-27T07:42:14.472Z,4.90
2018-11-27T07:43:14.462Z,5.80
2018-11-27T07:44:14.452Z,4.20
2018-11-27T07:45:14.441Z,4.20
2018-11-27T07:46:14.430Z,4.20
2018-11-27T07:47:14.419Z,5.10
2018-11-27T07:48:14.409Z,4.50
2018-11-27T07:49:14.397Z,5.40
2018-11-27T07:50:14.388Z,4.80
2018-11-27T07:51:14.376Z,6.00
2018-11-27T07:52:14.365Z,5.60
2018-11-27T07:53:14.356Z,5.40
2018-11-27T07:54:14.343Z,4.70
2018-11-27T07:55:14.332Z,5.00
2018-11-27T07:56:14.322Z,5.30
2018-11-27T07:57:14.312Z,5.10
2018-11-27T07:58:14.302Z,5.80
2018-11-27T07:59:14.296Z,4.80
2018-11-27T08:00:14.283Z,5.30
2018-11-27T08:01:14.268Z,5.10
2018-11-27T08:02:14.256Z,5.10
2018-11-27T08:03:14.249Z,5.00
2018-11-27T08:04:14.237Z,4.80
2018-11-27T08:05:14.228Z,5.70
2018-11-27T08:06:14.213Z,5.20
2018-11-27T08:07:14.204Z,5.30
2018-11-27T08:08:14.195Z,5.30
2018-11-27T08:09:14.183Z,5.00
2018-11-27T08:10:14.171Z,4.60
2018-11-27T08:11:14.161Z,5.60
2018-11-27T08:12:14.150Z,4.60
2018-11-27T08:13:14.140Z,4.70
2018-11-27T08:14:14.128Z,4.00
2018-11-27T08:15:14.118Z,5.80
2018-11-27T08:16:14.106Z,4.00
2018-11-27T08:17:14.096Z,4.30
2018-11-27T08:18:14.085Z,4.90
2018-11-27T08:19:14.075Z,4.60
2018-11-27T08:20:14.065Z,6.40
2018-11-27T08:21:14.053Z,5.90
2018-11-27T08:22:14.043Z,5.00
2018-11-27T08:23:14.033Z,4.60
2018-11-27T08:24:14.022Z,5.30
2018-11-27T08:25:14.014Z,4.60
2018-11-27T08:26:14.001Z,4.80
2018-11-27T08:27:13.989Z,4.90
2018-11-27T08:28:13.978Z,6.10
2018-11-27T08:29:13.969Z,5.60
2018-11-27T08:30:13.958Z,5.20
2018-11-27T08:31:13.946Z,5.20
2018-11-27T08:32:13.935Z,5.00
2018-11-27T08:33:13.925Z,5.10
2018-11-27T08:34:13.914Z,4.70
2018-11-27T08:35:13.902Z,5.10
2018-11-27T08:36:13.892Z,4.30
2018-11-27T08:37:13.881Z,3.90
2018-11-27T08:38:13.870Z,4.10
2018-11-27T08:39:13.860Z,6.20
2018-11-27T08:40:13.849Z,4.70
2018-11-27T08:41:13.840Z,5.20
2018-11-27T08:42:13.828Z,3.70
2018-11-27T08:43:13.817Z,4.40
2018-11-27T08:44:13.806Z,5.20
2018-11-27T08:45:13.796Z,3.90
2018-11-27T08:46:13.785Z,4.60
2018-11-27T08:47:13.774Z,5.20
2018-11-27T08:48:13.765Z,4.50
2018-11-27T08:49:13.760Z,4.50
2018-11-27T08:50:13.741Z,5.50
2018-11-27T08:51:13.731Z,4.40
2018-11-27T08:52:13.720Z,5.00
2018-11-27T08:53:13.710Z,5.60
2018-11-27T08:54:13.699Z,4.90
2018-11-27T08:55:13.688Z,5.10
2018-11-27T08:56:13.682Z,5.70
2018-11-27T08:57:13.666Z,5.00
2018-11-27T08:58:13.657Z,4.90
2018-11-27T08:59:13.646Z,4.50
2018-11-27T09:00:13.634Z,5.60
2018-11-27T09:01:13.624Z,3.80
2018-11-27T09:02:13.744Z,5.20
2018-11-27T09:03:13.604Z,5.70
2018-11-27T09:04:13.595Z,5.20
2018-11-27T09:05:13.582Z,6.70
2018-11-27T09:06:13.573Z,5.30
2018-11-27T09:07:13.559Z,5.30
2018-11-27T09:08:13.549Z,5.70
2018-11-27T09:09:13.539Z,5.00
2018-11-27T09:10:13.528Z,4.70
2018-11-27T09:11:13.522Z,4.60
2018-11-27T09:12:13.507Z,5.50
2018-11-27T09:13:13.756Z,4.80
2018-11-27T09:14:14.073Z,5.10
2018-11-27T09:15:13.474Z,4.90
2018-11-27T09:16:13.465Z,5.60
2018-11-27T09:17:13.453Z,4.00
2018-11-27T09:18:13.442Z,4.80
2018-11-27T09:19:13.431Z,5.60
2018-11-27T09:20:13.419Z,6.40
2018-11-27T09:21:13.412Z,4.10
2018-11-27T09:22:13.400Z,4.80
2018-11-27T09:23:13.387Z,5.00
2018-11-27T09:24:13.379Z,4.80
2018-11-27T09:25:13.367Z,6.20
2018-11-27T09:26:13.357Z,4.90
2018-11-27T09:27:13.346Z,4.50
2018-11-27T09:28:13.334Z,3.90
2018-11-27T09:29:13.323Z,4.90
2018-11-27T09:30:13.316Z,4.80
2018-11-27T09:31:13.302Z,6.10
2018-11-27T09:32:13.292Z,4.50
2018-11-27T09:33:13.282Z,4.50
2018-11-27T09:34:13.271Z,5.20
2018-11-27T09:35:13.259Z,5.20
2018-11-27T09:36:13.248Z,4.20
2018-11-27T09:37:13.240Z,4.10
2018-11-27T09:38:13.231Z,5.20
2018-11-27T09:39:13.219Z,5.60
2018-11-27T09:40:13.241Z,4.50
2018-11-27T09:41:13.197Z,4.50
2018-11-27T09:42:13.186Z,4.00
2018-11-27T09:43:13.175Z,4.70
2018-11-27T09:44:13.165Z,4.50
2018-11-27T09:45:13.152Z,4.50
2018-11-27T09:46:13.142Z,5.00
2018-11-27T09:47:13.132Z,4.40
2018-11-27T09:48:13.121Z,4.70
2018-11-27T09:49:13.110Z,5.00
2018-11-27T09:50:13.107Z,4.70
2018-11-27T09:51:13.088Z,5.10
2018-11-27T09:52:13.078Z,6.00
2018-11-27T09:53:13.071Z,5.30
2018-11-27T09:54:13.056Z,4.60
2018-11-27T09:55:13.045Z,4.40
2018-11-27T09:56:13.037Z,4.70
2018-11-27T09:57:13.024Z,4.80
2018-11-27T09:58:13.013Z,4.60
2018-11-27T09:59:13.002Z,4.30
2018-11-27T10:00:12.993Z,5.50
2018-11-27T10:01:12.981Z,4.00
2018-11-27T10:02:12.970Z,4.20
2018-11-27T10:03:12.972Z,4.30
2018-11-27T10:04:12.950Z,4.90
2018-11-27T10:05:12.938Z,3.90
2018-11-27T10:06:12.928Z,5.10
2018-11-27T10:07:12.932Z,4.90
2018-11-27T10:08:12.906Z,4.10
2018-11-27T10:09:12.904Z,4.40
2018-11-27T10:10:12.887Z,4.60
2018-11-27T10:11:12.922Z,4.30
2018-11-27T10:12:12.863Z,4.50
2018-11-27T10:13:12.853Z,4.10
2018-11-27T10:14:12.844Z,4.90
2018-11-27T10:15:12.836Z,5.40
2018-11-27T10:16:12.825Z,5.10
2018-11-27T10:17:12.810Z,4.90
2018-11-27T10:18:12.799Z,4.70
2018-11-27T10:19:12.791Z,4.70
2018-11-27T10:20:12.778Z,4.80
2018-11-27T10:21:12.766Z,5.90
2018-11-27T10:22:12.755Z,5.20
2018-11-27T10:23:12.748Z,5.30
2018-11-27T10:24:12.735Z,4.10
2018-11-27T10:25:12.725Z,4.80
2018-11-27T10:26:12.717Z,5.10
2018-11-27T10:27:12.703Z,4.90
2018-11-27T10:28:12.692Z,5.30
2018-11-27T10:29:12.684Z,4.40
2018-11-27T10:30:12.669Z,4.60
2018-11-27T10:31:12.659Z,4.60
2018-11-27T10:32:12.649Z,5.30
2018-11-27T10:33:12.641Z,4.20
2018-11-27T10:34:12.629Z,4.70
2018-11-27T10:35:12.617Z,4.20
2018-11-27T10:36:12.607Z,4.20
2018-11-27T10:37:12.595Z,4.70
2018-11-27T10:38:12.586Z,4.40
2018-11-27T10:39:12.575Z,5.30
2018-11-27T10:40:12.564Z,4.60
2018-11-27T10:41:12.553Z,4.30
2018-11-27T10:42:13.779Z,5.00
2018-11-27T10:43:12.533Z,4.60
2018-11-27T10:44:12.520Z,4.90
2018-11-27T10:45:12.510Z,4.40
2018-11-27T10:46:12.499Z,4.70
2018-11-27T10:47:12.489Z,5.60
2018-11-27T10:48:12.477Z,4.50
2018-11-27T10:49:12.510Z,5.90
2018-11-27T10:50:12.456Z,4.20
2018-11-27T10:51:12.446Z,5.10
2018-11-27T10:52:12.435Z,5.20
2018-11-27T10:53:12.426Z,4.80
2018-11-27T10:54:12.418Z,4.60
2018-11-27T10:55:12.405Z,4.50
2018-11-27T10:56:12.392Z,4.90
2018-11-27T10:57:12.382Z,4.50
2018-11-27T10:58:12.373Z,4.10
2018-11-27T10:59:12.360Z,4.40
2018-11-27T11:00:12.352Z,4.90
2018-11-27T11:01:12.341Z,5.40
2018-11-27T11:02:12.332Z,5.10
2018-11-27T11:03:12.319Z,4.70
2018-11-27T11:04:12.308Z,3.70
2018-11-27T11:05:12.296Z,5.00
2018-11-27T11:06:12.286Z,4.40
2018-11-27T11:07:12.274Z,4.00
2018-11-27T11:08:12.263Z,3.90
2018-11-27T11:09:12.253Z,5.40
2018-11-27T11:10:12.245Z,4.40
2018-11-27T11:11:12.232Z,4.80
2018-11-27T11:12:12.222Z,4.50
2018-11-27T11:13:12.212Z,4.90
2018-11-27T11:14:12.201Z,4.50
2018-11-27T11:15:12.187Z,4.20
2018-11-27T11:16:12.177Z,5.40
2018-11-27T11:17:12.167Z,4.50
2018-11-27T11:18:12.160Z,5.10
2018-11-27T11:19:12.145Z,4.40
2018-11-27T11:20:12.135Z,4.70
2018-11-27T11:21:12.124Z,5.00
2018-11-27T11:22:12.112Z,4.10
2018-11-27T11:23:12.102Z,3.80
2018-11-27T11:24:12.094Z,4.20
2018-11-27T11:25:12.080Z,4.50
2018-11-27T11:26:12.071Z,5.10
2018-11-27T11:27:12.060Z,4.70
2018-11-27T11:28:12.050Z,4.80
2018-11-27T11:29:12.038Z,4.40
2018-11-27T11:30:12.027Z,5.00
2018-11-27T11:31:12.023Z,3.80
2018-11-27T11:32:12.005Z,4.60
2018-11-27T11:33:11.995Z,4.10
2018-11-27T11:34:11.985Z,5.40
2018-11-27T11:35:11.974Z,4.50
2018-11-27T11:36:11.962Z,4.70
2018-11-27T11:37:11.951Z,4.20
2018-11-27T11:38:11.948Z,4.70
2018-11-27T11:39:11.931Z,4.00
2018-11-27T11:40:11.920Z,5.10
2018-11-27T11:41:11.909Z,5.30
2018-11-27T11:42:11.904Z,5.20
2018-11-27T11:43:11.890Z,4.60
2018-11-27T11:44:11.878Z,4.30
2018-11-27T11:45:11.866Z,5.00
2018-11-27T11:46:11.856Z,4.60
2018-11-27T11:47:11.844Z,4.30
2018-11-27T11:48:11.834Z,4.10
2018-11-27T11:49:12.338Z,4.20
2018-11-27T11:50:11.813Z,3.90
2018-11-27T11:51:11.804Z,4.60
2018-11-27T11:52:11.795Z,4.00
2018-11-27T11:53:11.781Z,4.60
2018-11-27T11:54:11.769Z,4.90
2018-11-27T11:55:11.760Z,4.80
2018-11-27T11:56:11.748Z,3.90
2018-11-27T11:57:11.738Z,4.10
2018-11-27T11:58:11.728Z,4.20
2018-11-27T11:59:11.716Z,4.40
2018-11-27T12:00:11.705Z,4.80
2018-11-27T12:01:11.696Z,3.80
2018-11-27T12:02:11.683Z,3.80
2018-11-27T12:03:11.673Z,4.70
2018-11-27T12:04:11.664Z,4.20
2018-11-27T12:05:11.652Z,5.40
2018-11-27T12:06:11.641Z,3.70
2018-11-27T12:07:11.629Z,4.00
2018-11-27T12:08:11.619Z,4.10
2018-11-27T12:09:11.610Z,4.30
2018-11-27T12:10:11.598Z,4.80
2018-11-27T12:11:11.587Z,4.50
2018-11-27T12:12:11.576Z,4.50
2018-11-27T12:13:11.567Z,3.80
2018-11-27T12:14:11.555Z,4.30
2018-11-27T12:15:11.545Z,3.80
2018-11-27T12:16:11.533Z,4.30
2018-11-27T12:17:11.523Z,4.60
2018-11-27T12:18:11.512Z,4.80
2018-11-27T12:19:11.502Z,3.90
2018-11-27T12:20:11.495Z,3.90
2018-11-27T12:21:11.481Z,4.00
2018-11-27T12:22:11.468Z,3.70
2018-11-27T12:23:11.457Z,4.90
2018-11-27T12:24:11.447Z,4.60
2018-11-27T12:25:11.437Z,3.40
2018-11-27T12:26:11.426Z,3.80
2018-11-27T12:27:11.415Z,4.10
2018-11-27T12:28:14.627Z,4.40
2018-11-27T12:29:11.394Z,4.50
2018-11-27T12:30:11.383Z,4.50
2018-11-27T12:31:11.374Z,4.50
2018-11-27T12:32:11.364Z,4.70
2018-11-27T12:33:11.350Z,4.20
2018-11-27T12:34:11.346Z,4.00
2018-11-27T12:35:11.329Z,4.30
2018-11-27T12:36:11.321Z,4.00
2018-11-27T12:37:11.309Z,3.90
2018-11-27T12:38:11.298Z,4.40
2018-11-27T12:39:11.287Z,5.20
2018-11-27T12:40:11.277Z,5.20
2018-11-27T12:41:11.267Z,3.80
2018-11-27T12:42:12.027Z,4.00
2018-11-27T12:43:11.244Z,3.80
2018-11-27T12:44:11.233Z,4.70
2018-11-27T12:45:11.223Z,4.50
2018-11-27T12:46:11.211Z,4.40
2018-11-27T12:47:11.201Z,4.90
2018-11-27T12:48:11.191Z,3.80
2018-11-27T12:49:11.183Z,4.70
2018-11-27T12:50:11.168Z,4.60
2018-11-27T12:51:11.779Z,3.80
2018-11-27T12:52:11.150Z,4.10
2018-11-27T12:53:16.560Z,4.30
2018-11-27T12:54:12.125Z,4.40
2018-11-27T12:55:11.116Z,4.80
2018-11-27T12:56:11.106Z,4.50
2018-11-27T12:57:11.096Z,4.40
2018-11-27T12:58:11.085Z,3.80
2018-11-27T12:59:11.074Z,4.80
2018-11-27T13:00:11.062Z,4.10
2018-11-27T13:01:11.050Z,4.80
2018-11-27T13:02:11.040Z,3.70
2018-11-27T13:03:11.031Z,4.00
2018-11-27T13:04:11.022Z,4.50
2018-11-27T13:05:11.008Z,4.20
2018-11-27T13:06:10.997Z,4.40
2018-11-27T13:07:10.987Z,4.20
2018-11-27T13:08:10.975Z,4.40
2018-11-27T13:09:10.965Z,4.50
2018-11-27T13:10:10.957Z,3.70
2018-11-27T13:11:11.636Z,4.70
2018-11-27T13:12:10.934Z,4.10
2018-11-27T13:13:10.921Z,3.80
2018-11-27T13:14:10.912Z,4.00
2018-11-27T13:15:10.903Z,4.10
2018-11-27T13:16:10.891Z,4.80
2018-11-27T13:17:10.882Z,4.20
2018-11-27T13:18:10.872Z,4.30